Flight Track Log - Related Links

Times and Time Zones

All times are in EDT time to prevent confusion due to time zone crossing. See the UAL1493 flight status page for this flight to view local times or setup timezone preferences in your user account.

Time Position Orientation Groundspeed Altitude Reporting Facility
EDT Latitude Longitude Course Direction KTS MPH feet Rate Location/Type
Fri 02:33:39 PM 40.6333 -74.2000 237° Southwest 191 220 1,900  Level New York TRACON
Fri 02:34:39 PM 40.6167 -74.2667 252° West 230 265 3,800 2,450 Climbing New York TRACON
Fri 02:35:39 PM 40.6167 -74.3333 270° West 234 269 6,800 2,800 Climbing New York TRACON
Fri 02:36:00 PM 40.7183 -74.7503 246° West  Level Estimated
Fri 02:36:39 PM 40.6333 -74.4167 285° West 242 278 9,400  Level New York TRACON
Fri 02:37:00 PM 40.7243 -74.8958 242° Southwest  Level Estimated
Fri 02:38:00 PM 40.7302 -75.0413 225° Southwest  Level Estimated
Fri 02:38:36 PM 40.6447 -74.6167 274° West 301 346 13,700  Level New York Center
Fri 02:39:00 PM 40.7358 -75.1868 237° Southwest  Level Estimated
Fri 02:39:37 PM 40.6550 -74.7483 276° West 326 375 15,700  Level New York Center
Fri 02:40:38 PM 40.6694 -74.8778 278° West 347 399 17,800 1,785 Climbing New York Center
Fri 02:41:38 PM 40.6778 -74.9933 275° West 361 415 19,300 1,750 Climbing New York Center
Fri 02:42:38 PM 40.6478 -75.1308 254° West 371 427 21,300 1,932 Climbing New York Center
Fri 02:43:36 PM 40.5908 -75.2583 240° Southwest 381 438 23,100 1,765 Climbing New York Center
Fri 02:44:37 PM 40.5317 -75.3883 239° Southwest 398 458 24,800 1,525 Climbing New York Center
Fri 02:45:38 PM 40.4742 -75.5236 241° Southwest 411 473 26,200 1,289 Climbing New York Center
Fri 02:46:38 PM 40.4147 -75.6558 239° Southwest 424 488 27,400 1,322 Climbing New York Center
Fri 02:47:36 PM 40.3525 -75.7931 239° Southwest 432 497 28,800 1,563 Climbing New York Center
Fri 02:48:37 PM 40.2842 -75.9297 237° Southwest 437 503 30,500 1,279 Climbing New York Center
Fri 02:49:38 PM 40.2197 -76.0689 239° Southwest 442 509 31,400 1,008 Climbing New York Center
Fri 02:50:36 PM 40.1542 -76.2269 242° Southwest 448 516 32,500 966 Climbing New York Center
Fri 02:51:36 PM 40.0869 -76.3683 238° Southwest 456 525 33,300 836 Climbing New York Center
Fri 02:52:38 PM 40.0236 -76.5150 241° Southwest 456 525 34,200 871 Climbing New York Center
Fri 02:54:42 PM 39.8911 -76.7839 237° Southwest 449 517 36,000 584 Climbing Washington Center
Fri 02:55:43 PM 39.8272 -76.9181 238° Southwest 441 507 36,000  Level Washington Center
Fri 02:56:43 PM 39.7653 -77.0492 238° Southwest 441 507 36,000  Level Washington Center
Fri 02:57:42 PM 39.7053 -77.1800 239° Southwest 436 502 36,000  Level Washington Center
Fri 02:58:42 PM 39.6431 -77.3108 238° Southwest 431 496 36,000  Level Washington Center
Fri 02:59:42 PM 39.5828 -77.4414 239° Southwest 425 489 36,000  Level Washington Center
Fri 03:00:43 PM 39.5203 -77.5717 238° Southwest 425 489 36,000  Level Washington Center
Fri 03:01:41 PM 39.4578 -77.6989 238° Southwest 425 489 36,000  Level Washington Center
Fri 03:02:41 PM 39.3950 -77.8286 238° Southwest 425 489 36,000  Level Washington Center
Fri 03:03:42 PM 39.3425 -77.9611 243° Southwest 425 489 36,000  Level Washington Center
Fri 03:04:42 PM 39.2897 -78.0964 243° Southwest 420 483 36,000  Level Washington Center
Fri 03:05:42 PM 39.2347 -78.2311 242° Southwest 420 483 36,000  Level Washington Center
Fri 03:06:43 PM 39.1797 -78.3631 242° Southwest 425 489 36,000  Level Washington Center
Fri 03:07:41 PM 39.1264 -78.5000 243° Southwest 425 489 36,000  Level Washington Center
Fri 03:08:41 PM 39.0731 -78.6342 243° Southwest 425 489 36,000  Level Washington Center
Fri 03:09:41 PM 39.0175 -78.7656 241° Southwest 425 489 36,000  Level Washington Center
Fri 03:10:42 PM 38.9617 -78.8994 242° Southwest 425 489 36,000  Level Washington Center
Fri 03:11:43 PM 38.9078 -79.0356 243° Southwest 425 489 36,000  Level Washington Center
Fri 03:12:41 PM 38.8539 -79.1692 243° Southwest 425 489 36,000  Level Washington Center
Fri 03:13:41 PM 38.8203 -79.3167 254° West 425 489 36,000  Level Washington Center
Fri 03:14:42 PM 38.7947 -79.4644 258° West 425 489 36,000  Level Washington Center
Fri 03:15:43 PM 38.7669 -79.6150 257° West 430 495 36,000  Level Washington Center
Fri 03:16:43 PM 38.7406 -79.7783 258° West 435 501 36,000  Level Washington Center
Fri 03:17:44 PM 38.7122 -79.9258 256° West 435 501 36,000  Level Washington Center
Fri 03:18:41 PM 38.6839 -80.0706 256° West 430 495 36,000  Level Washington Center
Fri 03:19:58 PM 38.6472 -80.2550 256° West 423 487 36,000  Level Indianapolis Center
Fri 03:21:00 PM 38.6189 -80.4000 256° West 421 484 36,000  Level Indianapolis Center
Fri 03:22:02 PM 38.5922 -80.5442 257° West 418 481 36,000  Level Indianapolis Center
Fri 03:23:04 PM 38.5636 -80.6881 256° West 418 481 36,000  Level Indianapolis Center
Fri 03:24:06 PM 38.5361 -80.8328 256° West 418 481 36,000  Level Indianapolis Center
Fri 03:25:08 PM 38.5075 -80.9764 256° West 417 480 36,000  Level Indianapolis Center
Fri 03:26:10 PM 38.4789 -81.1222 256° West 421 484 36,000  Level Indianapolis Center
Fri 03:27:13 PM 38.4439 -81.2983 256° West 423 487 36,000  Level Indianapolis Center
Fri 03:28:15 PM 38.4144 -81.4453 256° West 422 486 36,000  Level Indianapolis Center
Fri 03:29:17 PM 38.3856 -81.5917 256° West 423 487 36,000  Level Indianapolis Center
Fri 03:30:19 PM 38.3567 -81.7378 256° West 421 484 36,000  Level Indianapolis Center
Fri 03:31:21 PM 38.3453 -81.8856 264° West 426 490 36,000  Level Indianapolis Center
Fri 03:32:23 PM 38.3389 -82.0322 267° West 415 478 36,000  Level Indianapolis Center
Fri 03:33:25 PM 38.3319 -82.1797 267° West 415 478 36,000  Level Indianapolis Center
Fri 03:34:27 PM 38.3258 -82.3289 267° West 420 483 36,000  Level Indianapolis Center
Fri 03:35:29 PM 38.3150 -82.5081 266° West 418 481 36,000  Level Indianapolis Center
Fri 03:36:31 PM 38.3064 -82.6542 266° West 416 479 36,000  Level Indianapolis Center
Fri 03:37:33 PM 38.2978 -82.7983 266° West 412 474 36,000  Level Indianapolis Center
Fri 03:38:35 PM 38.2886 -82.9450 265° West 414 476 36,000  Level Indianapolis Center
Fri 03:39:37 PM 38.2797 -83.0908 266° West 414 476 36,000  Level Indianapolis Center
Fri 03:40:39 PM 38.2694 -83.2603 266° West 412 474 36,000  Level Indianapolis Center
Fri 03:41:42 PM 38.2608 -83.4036 266° West 409 471 36,000  Level Indianapolis Center
Fri 03:42:44 PM 38.2511 -83.5458 265° West 405 466 36,000  Level Indianapolis Center
Fri 03:43:46 PM 38.2425 -83.6883 266° West 405 466 36,000  Level Indianapolis Center
Fri 03:44:48 PM 38.2325 -83.8294 265° West 402 463 36,000  Level Indianapolis Center
Fri 03:45:50 PM 38.2208 -83.9950 265° West 403 464 36,000  Level Indianapolis Center
Fri 03:46:52 PM 38.2108 -84.1372 265° West 403 464 36,000  Level Indianapolis Center
Fri 03:47:54 PM 38.2011 -84.2797 265° West 405 466 36,000  Level Indianapolis Center
Fri 03:48:56 PM 38.1906 -84.4225 265° West 406 467 36,000  Level Indianapolis Center
Fri 03:49:58 PM 38.1811 -84.5656 265° West 405 466 36,000  Level Indianapolis Center
Fri 03:51:00 PM 38.1700 -84.7089 264° West 408 470 36,000  Level Indianapolis Center
Fri 03:52:02 PM 38.1581 -84.8764 265° West 409 471 36,000  Level Indianapolis Center
Fri 03:53:04 PM 38.1458 -85.0206 264° West 410 472 36,000  Level Indianapolis Center
Fri 03:54:06 PM 38.1353 -85.1658 265° West 412 474 36,000  Level Indianapolis Center
Fri 03:55:08 PM 38.1250 -85.3028 265° West 411 473 36,000  Level Indianapolis Center
Fri 03:56:11 PM 38.1131 -85.4469 264° West 409 471 36,000  Level Indianapolis Center
Fri 03:57:13 PM 38.0992 -85.6197 264° West 409 471 36,000  Level Indianapolis Center
Fri 03:58:15 PM 38.0897 -85.7628 265° West 407 468 36,000  Level Indianapolis Center
Fri 03:59:17 PM 38.0792 -85.9058 265° West 407 468 36,000  Level Indianapolis Center
Fri 04:00:19 PM 38.0686 -86.0500 265° West 408 470 36,000  Level Indianapolis Center
Fri 04:01:21 PM 38.0581 -86.1917 265° West 403 464 36,000  Level Indianapolis Center
Fri 04:02:23 PM 38.0469 -86.3336 264° West 403 464 36,000  Level Indianapolis Center
Fri 04:03:25 PM 38.0358 -86.4753 264° West 401 461 36,000  Level Indianapolis Center
Fri 04:04:27 PM 38.0228 -86.6469 265° West 404 465 36,000  Level Indianapolis Center
Fri 04:05:29 PM 38.0103 -86.7894 264° West 404 465 36,000  Level Indianapolis Center
Fri 04:06:31 PM 37.9989 -86.9325 264° West 403 464 36,000  Level Indianapolis Center
Fri 04:07:33 PM 37.9878 -87.0756 264° West 403 464 36,000  Level Indianapolis Center
Fri 04:08:36 PM 37.9758 -87.2175 264° West 400 460 36,000  Level Indianapolis Center
Fri 04:09:38 PM 37.9636 -87.3594 264° West 402 463 36,000  Level Indianapolis Center
Fri 04:10:40 PM 37.9514 -87.5003 264° West 399 459 36,000  Level Indianapolis Center
Fri 04:11:42 PM 37.9417 -87.6408 265° West 398 458 36,000  Level Indianapolis Center
Fri 04:12:44 PM 37.9325 -87.7800 265° West 396 456 36,000  Level Indianapolis Center
Fri 04:13:46 PM 37.9214 -87.9494 265° West 399 459 36,000  Level Indianapolis Center
Fri 04:14:48 PM 37.9122 -88.0881 265° West 395 455 36,000  Level Indianapolis Center
Fri 04:15:50 PM 37.9031 -88.2292 265° West 400 460 36,000  Level Indianapolis Center
Fri 04:16:52 PM 37.8947 -88.3689 266° West 397 457 36,000  Level Indianapolis Center
Fri 04:17:30 PM 37.8900 -88.4539 266° West 399 459 36,000  Level Kansas City Center
Fri 04:18:33 PM 37.8794 -88.5953 265° West 402 463 36,000  Level Kansas City Center
Fri 04:19:34 PM 37.8694 -88.7431 265° West 402 463 36,000  Level Kansas City Center
Fri 04:20:35 PM 37.8578 -88.8822 264° West 400 460 36,000  Level Kansas City Center
Fri 04:21:39 PM 37.8475 -89.0217 265° West 399 459 36,000  Level Kansas City Center
Fri 04:22:39 PM 37.8333 -89.1842 264° West 402 463 36,000  Level Kansas City Center
Fri 04:23:43 PM 37.8236 -89.3128 265° West 396 456 36,000  Level Kansas City Center
Fri 04:24:44 PM 37.8108 -89.4656 264° West 395 455 36,000  Level Kansas City Center
Fri 04:25:48 PM 37.7994 -89.6042 264° West 396 456 36,000  Level Kansas City Center
Fri 04:26:49 PM 37.7869 -89.7417 263° West 395 455 36,000  Level Kansas City Center
Fri 04:27:50 PM 37.7756 -89.8797 264° West 395 455 36,000  Level Kansas City Center
Fri 04:28:53 PM 37.7631 -90.0189 264° West 396 456 36,000  Level Kansas City Center
Fri 04:29:54 PM 37.7486 -90.1850 264° West 397 457 36,000  Level Kansas City Center
Fri 04:30:58 PM 37.7361 -90.3225 263° West 395 455 36,000  Level Kansas City Center
Fri 04:32:00 PM 37.7239 -90.4583 264° West 392 451 36,000  Level Kansas City Center
Fri 04:33:00 PM 37.7106 -90.5944 263° West 391 450 36,000  Level Kansas City Center
Fri 04:34:04 PM 37.6975 -90.7319 263° West 393 452 36,000  Level Kansas City Center
Fri 04:35:05 PM 37.6842 -90.8706 263° West 396 456 36,000  Level Kansas City Center
Fri 04:36:06 PM 37.6711 -91.0078 263° West 396 456 36,000  Level Kansas City Center
Fri 04:37:09 PM 37.6578 -91.1522 263° West 394 453 36,000  Level Kansas City Center
Fri 04:38:10 PM 37.6414 -91.3169 263° West 394 453 36,000  Level Kansas City Center
Fri 04:39:13 PM 37.6286 -91.4536 263° West 392 451 36,000  Level Kansas City Center
Fri 04:40:17 PM 37.6144 -91.5892 263° West 390 449 36,000  Level Kansas City Center
Fri 04:41:17 PM 37.6011 -91.7250 263° West 389 448 36,000  Level Kansas City Center
Fri 04:42:18 PM 37.5875 -91.8608 263° West 389 448 36,000  Level Kansas City Center
Fri 04:43:23 PM 37.5736 -91.9961 263° West 388 447 36,000  Level Kansas City Center
Fri 04:44:23 PM 37.5583 -92.1311 262° West 386 444 36,000  Level Kansas City Center
Fri 04:45:26 PM 37.5428 -92.2944 263° West 387 445 36,000  Level Kansas City Center
Fri 04:46:27 PM 37.5272 -92.4306 262° West 389 448 36,000  Level Kansas City Center
Fri 04:47:30 PM 37.5125 -92.5669 262° West 389 448 36,000  Level Kansas City Center
Fri 04:48:31 PM 37.4981 -92.7042 262° West 392 451 36,000  Level Kansas City Center
Fri 04:49:33 PM 37.4833 -92.8397 262° West 389 448 36,000  Level Kansas City Center
Fri 04:50:35 PM 37.4683 -92.9739 262° West 387 445 36,000  Level Kansas City Center
Fri 04:51:39 PM 37.4528 -93.1083 262° West 387 445 36,000  Level Kansas City Center
Fri 04:52:40 PM 37.4389 -93.2442 263° West 388 447 36,000  Level Kansas City Center
Fri 04:53:43 PM 37.4197 -93.4036 261° West 385 443 36,000  Level Kansas City Center
Fri 04:54:44 PM 37.4036 -93.5375 261° West 386 444 36,000  Level Kansas City Center
Fri 04:55:47 PM 37.3864 -93.6706 261° West 386 444 36,000  Level Kansas City Center
Fri 04:56:49 PM 37.3717 -93.8053 262° West 388 447 36,000  Level Kansas City Center
Fri 04:57:50 PM 37.3553 -93.9406 261° West 390 449 36,000  Level Kansas City Center
Fri 04:58:51 PM 37.3386 -94.0733 261° West 387 445 36,000  Level Kansas City Center
Fri 04:59:55 PM 37.3211 -94.2164 261° West 388 447 36,000  Level Kansas City Center
Fri 05:00:56 PM 37.3042 -94.3494 261° West 388 447 36,000  Level Kansas City Center
Fri 05:01:58 PM 37.2881 -94.4825 261° West 386 444 36,000  Level Kansas City Center
Fri 05:03:01 PM 37.2678 -94.6436 261° West 389 448 36,000  Level Kansas City Center
Fri 05:04:01 PM 37.2522 -94.7744 262° West 384 442 36,000  Level Kansas City Center
Fri 05:05:05 PM 37.2336 -94.9019 260° West 376 433 36,000  Level Kansas City Center
Fri 05:06:06 PM 37.2172 -95.0319 261° West 376 433 36,000  Level Kansas City Center
Fri 05:07:10 PM 37.2006 -95.1608 261° West 377 434 36,000  Level Kansas City Center
Fri 05:08:11 PM 37.1833 -95.2903 261° West 376 433 36,000  Level Kansas City Center
Fri 05:09:11 PM 37.1628 -95.4453 261° West 378 435 36,000  Level Kansas City Center
Fri 05:10:15 PM 37.1458 -95.5781 261° West 382 440 36,000  Level Kansas City Center
Fri 05:11:16 PM 37.1283 -95.7081 260° West 381 438 36,000  Level Kansas City Center
Fri 05:12:21 PM 37.1103 -95.8392 260° West 382 440 36,000  Level Kansas City Center
Fri 05:13:21 PM 37.0917 -95.9692 260° West 381 438 36,000  Level Kansas City Center
Fri 05:14:22 PM 37.0697 -96.1258 260° West 382 440 36,000  Level Kansas City Center
Fri 05:15:25 PM 37.0517 -96.2542 260° West 378 435 36,000  Level Kansas City Center
Fri 05:16:26 PM 37.0333 -96.3825 260° West 376 433 36,000  Level Kansas City Center
Fri 05:17:29 PM 37.0142 -96.5108 259° West 376 433 36,000  Level Kansas City Center
Fri 05:18:30 PM 36.9961 -96.6389 260° West 376 433 36,000  Level Kansas City Center
Fri 05:19:32 PM 36.9756 -96.7808 260° West 374 430 36,000  Level Kansas City Center
Fri 05:20:34 PM 36.9556 -96.9092 259° West 374 430 36,000  Level Kansas City Center
Fri 05:21:37 PM 36.9372 -97.0378 260° West 375 432 36,000  Level Kansas City Center
Fri 05:22:38 PM 36.9189 -97.1639 260° West 372 428 36,000  Level Kansas City Center
Fri 05:24:00 PM 36.8765 -97.3420 253° West  Level FlightAware Approximate
Fri 05:24:42 PM 36.8792 -97.4231 253° West 378 435 36,000  Level Kansas City Center
Fri 05:25:47 PM 36.8556 -97.5806 259° West 381 438 36,000  Level Kansas City Center
Fri 05:26:47 PM 36.8342 -97.7158 259° West 390 449 36,000  Level Kansas City Center
Fri 05:27:49 PM 36.8117 -97.8558 259° West 388 447 36,000  Level Kansas City Center
Fri 05:28:52 PM 36.7900 -97.9892 259° West 390 449 36,000  Level Kansas City Center
Fri 05:29:53 PM 36.7686 -98.1236 259° West 394 453 36,000  Level Kansas City Center
Fri 05:30:57 PM 36.7478 -98.2583 259° West 395 455 36,000  Level Kansas City Center
Fri 05:31:58 PM 36.7256 -98.3922 258° West 396 456 36,000  Level Kansas City Center
Fri 05:32:59 PM 36.7050 -98.5253 259° West 394 453 36,000  Level Kansas City Center
Fri 05:34:03 PM 36.6789 -98.6878 259° West 398 458 36,000  Level Kansas City Center
Fri 05:35:04 PM 36.6575 -98.8211 259° West 395 455 36,000  Level Kansas City Center
Fri 05:36:05 PM 36.6356 -98.9539 258° West 395 455 36,000  Level Kansas City Center
Fri 05:37:08 PM 36.6142 -99.0853 259° West 392 451 36,000  Level Kansas City Center
Fri 05:38:09 PM 36.5931 -99.2139 258° West 384 442 36,000  Level Kansas City Center
Fri 05:39:14 PM 36.5703 -99.3453 258° West 387 445 36,000  Level Kansas City Center
Fri 05:40:14 PM 36.5444 -99.5011 258° West 386 444 36,000  Level Kansas City Center
Fri 05:41:15 PM 36.5228 -99.6300 258° West 384 442 36,000  Level Kansas City Center
Fri 05:42:19 PM 36.4997 -99.7578 257° West 382 440 36,000  Level Kansas City Center
Fri 05:43:20 PM 36.4772 -99.8864 258° West 381 438 36,000  Level Kansas City Center
Fri 05:44:21 PM 36.4547 -100.0125 258° West 378 435 36,000  Level Kansas City Center
Fri 05:45:24 PM 36.4283 -100.1650 258° West 376 433 36,000  Level Kansas City Center
Fri 05:46:26 PM 36.4058 -100.2928 258° West 378 435 36,000  Level Kansas City Center
Fri 05:47:29 PM 36.3828 -100.4197 257° West 378 435 36,000  Level Kansas City Center
Fri 05:48:30 PM 36.3597 -100.5464 257° West 377 434 36,000  Level Kansas City Center
Fri 05:49:34 PM 36.3367 -100.6725 257° West 375 432 36,000  Level Kansas City Center
Fri 05:50:34 PM 36.3117 -100.8094 257° West 377 434 36,000  Level Kansas City Center
Fri 05:51:21 PM 36.2944 -100.9003 257° West 378 435 36,000  Level Albuquerque Center
Fri 05:52:23 PM 36.2714 -101.0256 257° West 374 430 36,000  Level Albuquerque Center
Fri 05:53:25 PM 36.2444 -101.1761 258° West 373 429 36,000  Level Albuquerque Center
Fri 05:54:27 PM 36.2192 -101.3094 257° West 376 433 36,000  Level Albuquerque Center
Fri 05:55:29 PM 36.1950 -101.4356 257° West 378 435 36,000  Level Albuquerque Center
Fri 05:56:31 PM 36.1717 -101.5617 257° West 378 435 36,000  Level Albuquerque Center
Fri 05:57:33 PM 36.1483 -101.6875 257° West 377 434 36,000  Level Albuquerque Center
Fri 05:58:35 PM 36.1236 -101.8111 256° West 375 432 36,000  Level Albuquerque Center
Fri 05:59:38 PM 36.1003 -101.9350 257° West 373 429 36,000  Level Albuquerque Center
Fri 06:00:40 PM 36.0714 -102.0839 257° West 373 429 36,000  Level Albuquerque Center
Fri 06:01:42 PM 36.0483 -102.2067 257° West 371 427 36,000  Level Albuquerque Center
Fri 06:02:44 PM 36.0228 -102.3297 256° West 372 428 36,000  Level Albuquerque Center
Fri 06:03:46 PM 35.9983 -102.4503 256° West 367 422 36,000  Level Albuquerque Center
Fri 06:04:48 PM 35.9753 -102.5694 257° West 362 417 36,000  Level Albuquerque Center
Fri 06:05:50 PM 35.9464 -102.7136 256° West 363 418 36,000  Level Albuquerque Center
Fri 06:06:52 PM 35.9225 -102.8347 256° West 365 420 36,000  Level Albuquerque Center
Fri 06:07:54 PM 35.8950 -102.9667 256° West 368 423 36,000  Level Albuquerque Center
Fri 06:08:56 PM 35.8711 -103.0900 257° West 370 426 36,000  Level Albuquerque Center
Fri 06:09:58 PM 35.8461 -103.2122 256° West 366 421 36,000  Level Albuquerque Center
Fri 06:11:00 PM 35.8206 -103.3350 256° West 367 422 36,000  Level Albuquerque Center
Fri 06:12:02 PM 35.7953 -103.4575 256° West 367 422 36,000  Level Albuquerque Center
Fri 06:13:04 PM 35.7686 -103.5819 255° West 372 428 36,000  Level Albuquerque Center
Fri 06:14:06 PM 35.7433 -103.7042 256° West 369 425 36,000  Level Albuquerque Center
Fri 06:15:08 PM 35.7131 -103.8461 255° West 366 421 36,000  Level Albuquerque Center
Fri 06:16:10 PM 35.6883 -103.9683 256° West 367 422 36,000  Level Albuquerque Center
Fri 06:17:12 PM 35.6622 -104.0906 255° West 369 425 36,000  Level Albuquerque Center
Fri 06:18:14 PM 35.6364 -104.2119 255° West 367 422 36,000  Level Albuquerque Center
Fri 06:19:16 PM 35.6103 -104.3317 255° West 364 419 36,000  Level Albuquerque Center
Fri 06:20:18 PM 35.5839 -104.4500 255° West 360 414 36,000  Level Albuquerque Center
Fri 06:21:20 PM 35.5536 -104.5900 255° West 362 417 36,000  Level Albuquerque Center
Fri 06:22:22 PM 35.5275 -104.7106 255° West 364 419 36,000  Level Albuquerque Center
Fri 06:23:24 PM 35.5003 -104.8297 254° West 362 417 36,000  Level Albuquerque Center
Fri 06:24:26 PM 35.4731 -104.9500 255° West 363 418 36,000  Level Albuquerque Center
Fri 06:25:28 PM 35.4489 -105.0714 256° West 366 421 36,000  Level Albuquerque Center
Fri 06:26:30 PM 35.4400 -105.1975 265° West 368 423 36,000  Level Albuquerque Center
Fri 06:27:32 PM 35.4292 -105.3439 265° West 367 422 36,000  Level Albuquerque Center
Fri 06:28:34 PM 35.4183 -105.4714 264° West 371 427 36,000 -48 Level Albuquerque Center
Fri 06:29:36 PM 35.4072 -105.6028 264° West 369 425 35,900  Descending Albuquerque Center
Fri 06:30:39 PM 35.3964 -105.7278 264° West 368 423 36,000  Climbing Albuquerque Center
Fri 06:31:41 PM 35.3853 -105.8533 264° West 367 422 35,900  Descending Albuquerque Center
Fri 06:32:43 PM 35.3769 -105.9628 265° West 365 420 36,000 48 Climbing Albuquerque Center
Fri 06:33:45 PM 35.3639 -106.1047 264° West 369 425 36,000 -48 Level Albuquerque Center
Fri 06:34:47 PM 35.3531 -106.2297 264° West 366 421 35,900  Descending Albuquerque Center
Fri 06:35:49 PM 35.3425 -106.3536 264° West 364 419 36,000  Climbing Albuquerque Center
Fri 06:36:51 PM 35.3314 -106.4772 264° West 364 419 35,900  Descending Albuquerque Center
Fri 06:37:52 PM 35.3181 -106.6172 263° West 356 410 36,000 49 Climbing Albuquerque Center
Fri 06:38:54 PM 35.3075 -106.7369 264° West 355 409 36,000  Level Albuquerque Center
Fri 06:39:56 PM 35.2956 -106.8653 264° West 353 406 36,000  Level Albuquerque Center
Fri 06:40:58 PM 35.2844 -106.9853 264° West 356 410 36,000  Level Albuquerque Center
Fri 06:42:00 PM 35.2725 -107.1147 264° West 357 411 36,000  Level Albuquerque Center
Fri 06:43:02 PM 35.2619 -107.2236 263° West 358 412 36,000  Level Albuquerque Center
Fri 06:44:04 PM 35.2486 -107.3592 263° West 359 413 36,000  Level Albuquerque Center
Fri 06:45:05 PM 35.2372 -107.4758 263° West 359 413 36,000  Level Albuquerque Center
Fri 06:46:07 PM 35.2217 -107.6156 262° West 368 423 36,000  Level Albuquerque Center
Fri 06:47:09 PM 35.2025 -107.7292 258° West 358 412 36,000  Level Albuquerque Center
Fri 06:48:11 PM 35.1686 -107.8397 249° West 364 419 36,000  Level Albuquerque Center
Fri 06:49:13 PM 35.1256 -107.9714 248° West 366 421 36,000  Level Albuquerque Center
Fri 06:50:14 PM 35.0931 -108.0744 249° West 364 419 36,000  Level Albuquerque Center
Fri 06:51:16 PM 35.0517 -108.2056 249° West 356 410 36,000  Level Albuquerque Center
Fri 06:52:18 PM 35.0167 -108.3150 249° West 358 412 36,000  Level Albuquerque Center
Fri 06:53:20 PM 34.9758 -108.4411 248° West 357 411 36,000  Level Albuquerque Center
Fri 06:54:21 PM 34.9408 -108.5494 249° West 358 412 36,000  Level Albuquerque Center
Fri 06:55:23 PM 34.9064 -108.6561 249° West 355 409 36,000  Level Albuquerque Center
Fri 06:56:25 PM 34.8658 -108.7819 249° West 355 409 36,000  Level Albuquerque Center
Fri 06:57:26 PM 34.8306 -108.8864 248° West 352 405 36,000  Level Albuquerque Center
Fri 06:58:28 PM 34.7892 -109.0094 248° West 350 403 36,000  Level Albuquerque Center
Fri 06:59:30 PM 34.7528 -109.1192 248° West 357 411 36,000  Level Albuquerque Center
Fri 07:00:31 PM 34.7169 -109.2289 248° West 361 415 36,000  Level Albuquerque Center
Fri 07:01:33 PM 34.6744 -109.3564 248° West 362 417 36,000  Level Albuquerque Center
Fri 07:02:35 PM 34.6386 -109.4642 248° West 361 415 36,000  Level Albuquerque Center
Fri 07:03:36 PM 34.5961 -109.5928 248° West 365 420 36,000  Level Albuquerque Center
Fri 07:04:38 PM 34.5592 -109.7017 248° West 365 420 36,000  Level Albuquerque Center
Fri 07:05:39 PM 34.5172 -109.8281 248° West 362 417 36,000  Level Albuquerque Center
Fri 07:06:41 PM 34.4811 -109.9364 248° West 362 417 36,000  Level Albuquerque Center
Fri 07:07:43 PM 34.4436 -110.0458 247° West 365 420 36,000  Level Albuquerque Center
Fri 07:08:44 PM 34.3997 -110.1722 247° West 365 420 36,000  Level Albuquerque Center
Fri 07:09:46 PM 34.3628 -110.2819 248° West 366 421 36,000  Level Albuquerque Center
Fri 07:10:47 PM 34.3192 -110.4092 247° West 366 421 36,000  Level Albuquerque Center
Fri 07:11:49 PM 34.2856 -110.5139 249° West 371 427 36,000  Level Albuquerque Center
Fri 07:12:51 PM 34.2406 -110.6328 245° Southwest 369 425 36,000  Level Albuquerque Center
Fri 07:13:52 PM 34.2031 -110.7400 247° West 368 423 36,000  Level Albuquerque Center
Fri 07:14:54 PM 34.1628 -110.8550 247° West 370 426 36,000  Level Albuquerque Center
Fri 07:15:55 PM 34.1153 -110.9933 248° West 372 428 36,000  Level Albuquerque Center
Fri 07:16:57 PM 34.0747 -111.1081 247° West 372 428 36,000  Level Albuquerque Center
Fri 07:17:58 PM 34.0347 -111.2222 247° West 371 427 36,000  Level Albuquerque Center
Fri 07:19:00 PM 33.9947 -111.3361 247° West 370 426 36,000  Level Albuquerque Center
Fri 07:20:01 PM 33.9544 -111.4483 247° West 367 422 36,000  Level Albuquerque Center
Fri 07:21:03 PM 33.9133 -111.5611 246° West 367 422 36,000  Level Albuquerque Center
Fri 07:22:04 PM 33.8667 -111.6931 247° West 367 422 36,000  Level Albuquerque Center
Fri 07:23:07 PM 33.8256 -111.8067 246° West 371 427 36,000  Level Albuquerque Center
Fri 07:24:07 PM 33.7844 -111.9222 247° West 377 434 36,000  Level Albuquerque Center
Fri 07:25:09 PM 33.7469 -112.0247 246° West 375 432 36,000  Level Albuquerque Center
Fri 07:26:10 PM 33.7050 -112.1406 247° West 377 434 36,000  Level Albuquerque Center
Fri 07:27:12 PM 33.6542 -112.2789 246° West 377 434 36,000  Level Albuquerque Center
Fri 07:28:13 PM 33.6119 -112.3950 246° West 380 437 36,000  Level Albuquerque Center
Fri 07:29:15 PM 33.5697 -112.5100 246° West 378 435 36,000 -49 Level Albuquerque Center
Fri 07:30:16 PM 33.5792 -112.6253 276° West 378 435 35,900  Descending Albuquerque Center
Fri 07:31:17 PM 33.6089 -112.7444 287° West 375 432 36,000  Climbing Albuquerque Center
Fri 07:32:19 PM 33.6397 -112.8647 287° West 377 434 35,900  Descending Albuquerque Center
Fri 07:33:20 PM 33.6731 -112.9897 288° West 375 432 36,000 49 Climbing Albuquerque Center
Fri 07:34:22 PM 33.7039 -113.1089 287° West 374 430 36,000  Level Albuquerque Center
Fri 07:35:23 PM 33.7353 -113.2272 288° West 373 429 36,000  Level Albuquerque Center
Fri 07:36:25 PM 33.7719 -113.3697 287° West 372 428 36,000  Level Albuquerque Center
Fri 07:37:26 PM 33.8014 -113.4892 287° West 373 429 36,000  Level Albuquerque Center
Fri 07:38:28 PM 33.8319 -113.6072 287° West 371 427 36,000  Level Albuquerque Center
Fri 07:39:29 PM 33.8483 -113.7292 279° West 370 426 36,000  Level Albuquerque Center
Fri 07:40:30 PM 33.8653 -113.8522 279° West 372 428 36,000  Level Albuquerque Center
Fri 07:41:32 PM 33.8817 -113.9744 279° West 372 428 36,000  Level Albuquerque Center
Fri 07:42:33 PM 33.8981 -114.0961 279° West 370 426 36,000  Level Albuquerque Center
Fri 07:43:35 PM 33.9172 -114.2333 280° West 373 429 36,000  Level Albuquerque Center
Fri 07:44:36 PM 33.9331 -114.3561 279° West 372 428 36,000  Level Albuquerque Center
Fri 07:45:38 PM 33.9500 -114.4797 279° West 374 430 36,000  Level Albuquerque Center
Fri 07:46:51 PM 33.9683 -114.6236 279° West 373 429 36,000  Level Los Angeles Center
Fri 07:47:53 PM 33.9886 -114.7731 279° West 376 433 36,000  Level Los Angeles Center
Fri 07:48:55 PM 34.0033 -114.8953 278° West 372 428 36,000  Level Los Angeles Center
Fri 07:49:57 PM 34.0211 -115.0194 280° West 375 432 36,000  Level Los Angeles Center
Fri 07:50:59 PM 34.0358 -115.1425 278° West 373 429 36,000 -48 Level Los Angeles Center
Fri 07:52:01 PM 34.0514 -115.2656 279° West 373 429 35,900  Descending Los Angeles Center
Fri 07:53:04 PM 34.0694 -115.4136 278° West 373 429 36,000 48 Climbing Los Angeles Center
Fri 07:54:06 PM 34.0856 -115.5372 279° West 374 430 36,000 -353 Level Los Angeles Center
Fri 07:55:20 PM 34.1025 -115.6850 278° West 373 429 35,200 -750 Descending Los Angeles Center
Fri 07:56:22 PM 34.1069 -115.8119 272° West 382 440 34,300 -968 Descending Los Angeles Center
Fri 07:57:24 PM 34.0881 -115.9386 260° West 386 444 33,200 -1,403 Descending Los Angeles Center
Fri 07:58:26 PM 34.0678 -116.0689 259° West 394 453 31,400 -1,824 Descending Los Angeles Center
Fri 07:59:29 PM 34.0442 -116.2292 260° West 404 465 29,400 -1,440 Descending Los Angeles Center
Fri 08:00:31 PM 34.0244 -116.3636 260° West 408 470 28,400 -968 Descending Los Angeles Center
Fri 08:01:33 PM 34.0044 -116.4900 259° West 396 456 27,400 -1,403 Descending Los Angeles Center
Fri 08:02:35 PM 33.9942 -116.6228 265° West 397 457 25,500 -2,226 Descending Los Angeles Center
Fri 08:03:37 PM 33.9844 -116.7492 265° West 390 449 22,800 -2,806 Descending Los Angeles Center
Fri 08:04:39 PM 33.9717 -116.9000 264° West 383 441 19,700 -2,661 Descending Los Angeles Center
Fri 08:05:41 PM 33.9611 -117.0239 264° West 378 435 17,300 -1,355 Descending Los Angeles Center
Fri 08:06:43 PM 33.9519 -117.1464 265° West 373 429 16,900 -581 Descending Los Angeles Center
Fri 08:07:45 PM 33.9400 -117.2725 264° West 376 433 16,100 -1,548 Descending Los Angeles Center
Fri 08:08:47 PM 33.9411 -117.3933 271° West 377 434 13,700 -2,177 Descending Los Angeles Center
Fri 08:09:49 PM 33.9778 -117.5019 292° West 357 411 11,600 -1,680 Descending Los Angeles Center
Fri 08:10:52 PM 34.0125 -117.6311 288° West 343 395 10,200 -1,056 Descending Los Angeles Center
Fri 08:11:54 PM 34.0031 -117.7306 263° West 315 362 9,400 -1,065 Descending Los Angeles Center
Fri 08:12:56 PM 33.9939 -117.8275 264° West 302 348 8,000 -1,306 Descending Los Angeles Center
Fri 08:13:58 PM 33.9844 -117.9214 263° West 292 336 6,700 -1,113 Descending Los Angeles Center
Fri 08:15:00 PM 33.9761 -118.0108 264° West 281 323 5,700 -1,065 Descending Los Angeles Center
Fri 08:16:02 PM 33.9653 -118.1103 263° West 264 304 4,500 -1,210 Descending Los Angeles Center
Fri 08:17:04 PM 33.9575 -118.1903 263° West 252 290 3,200 -1,306 Descending Los Angeles Center
Fri 08:18:06 PM 33.9494 -118.2703 263° West 247 284 1,800 -1,161 Descending Los Angeles Center
Fri 08:19:08 PM 33.9422 -118.3383 263° West 222 255 800 -823 Descending Los Angeles Center
Fri 08:20:10 PM 33.9378 -118.3881 264° West 179 206 100 -677 Descending Los Angeles Center

Login

Don't have an account? Register now (free) for customized features, flight alerts, and more!